createdAt,value
2023-04-01T00:00:07.676Z,989.23
2023-04-01T00:01:07.673Z,989.13
2023-04-01T00:02:07.742Z,989.16
2023-04-01T00:03:07.740Z,989.18
2023-04-01T00:04:07.707Z,989.23
2023-04-01T00:05:07.679Z,989.18
2023-04-01T00:06:07.661Z,989.20
2023-04-01T00:07:07.646Z,989.21
2023-04-01T00:08:07.642Z,989.21
2023-04-01T00:09:07.636Z,989.12
2023-04-01T00:10:07.636Z,989.15
2023-04-01T00:11:07.647Z,989.18
2023-04-01T00:12:07.631Z,989.17
2023-04-01T00:13:07.623Z,989.21
2023-04-01T00:14:07.626Z,989.25
2023-04-01T00:15:07.620Z,989.18
2023-04-01T00:16:17.887Z,989.21
2023-04-01T00:17:07.752Z,989.25
2023-04-01T00:18:07.679Z,989.20
2023-04-01T00:19:07.602Z,989.27
2023-04-01T00:20:07.600Z,989.22
2023-04-01T00:21:07.632Z,989.15
2023-04-01T00:22:07.594Z,989.21
2023-04-01T00:23:07.587Z,989.19
2023-04-01T00:24:07.588Z,989.15
2023-04-01T00:25:07.580Z,989.14
2023-04-01T00:26:07.588Z,989.13
2023-04-01T00:27:07.591Z,989.19
2023-04-01T00:28:07.581Z,989.15
2023-04-01T00:29:07.568Z,989.08
2023-04-01T00:30:07.570Z,989.12
2023-04-01T00:31:07.865Z,989.15
2023-04-01T00:32:07.638Z,989.12
2023-04-01T00:33:07.619Z,989.08
2023-04-01T00:34:07.555Z,989.09
2023-04-01T00:35:07.551Z,989.08
2023-04-01T00:36:07.555Z,989.04
2023-04-01T00:37:07.565Z,989.07
2023-04-01T00:38:07.558Z,989.01
2023-04-01T00:39:07.545Z,989.03
2023-04-01T00:40:07.561Z,989.07
2023-04-01T00:41:07.549Z,989.06
2023-04-01T00:42:07.525Z,988.99
2023-04-01T00:43:07.519Z,989.10
2023-04-01T00:44:07.519Z,989.04
2023-04-01T00:45:07.514Z,989.05
2023-04-01T00:46:07.512Z,988.99
2023-04-01T00:47:07.566Z,989.00
2023-04-01T00:48:07.616Z,989.06
2023-04-01T00:49:07.511Z,989.07
2023-04-01T00:50:07.504Z,989.05
2023-04-01T00:51:07.499Z,988.96
2023-04-01T00:52:07.490Z,989.02
2023-04-01T00:53:07.526Z,988.99
2023-04-01T00:54:07.485Z,989.04
2023-04-01T00:55:07.483Z,989.05
2023-04-01T00:56:07.484Z,988.99
2023-04-01T00:57:07.521Z,988.95
2023-04-01T00:58:07.475Z,988.95
2023-04-01T00:59:07.477Z,988.97
2023-04-01T01:00:07.461Z,988.98
2023-04-01T01:01:07.484Z,988.95
2023-04-01T01:02:07.488Z,988.92
2023-04-01T01:03:07.457Z,988.88
2023-04-01T01:04:07.445Z,988.98
2023-04-01T01:05:07.447Z,988.89
2023-04-01T01:06:07.440Z,988.97
2023-04-01T01:07:07.434Z,988.93
2023-04-01T01:08:07.457Z,988.88
2023-04-01T01:09:07.455Z,988.91
2023-04-01T01:10:07.423Z,988.98
2023-04-01T01:11:07.423Z,988.88
2023-04-01T01:12:07.432Z,988.86
2023-04-01T01:13:07.432Z,988.86
2023-04-01T01:14:07.409Z,988.89
2023-04-01T01:15:07.414Z,988.88
2023-04-01T01:16:07.448Z,988.85
2023-04-01T01:17:07.397Z,988.86
2023-04-01T01:18:07.492Z,988.86
2023-04-01T01:19:07.393Z,988.82
2023-04-01T01:20:12.742Z,988.83
2023-04-01T01:21:07.394Z,988.80
2023-04-01T01:22:07.387Z,988.80
2023-04-01T01:23:07.383Z,988.81
2023-04-01T01:24:07.386Z,988.80
2023-04-01T01:25:07.392Z,988.78
2023-04-01T01:26:07.376Z,988.82
2023-04-01T01:27:07.375Z,988.82
2023-04-01T01:28:07.363Z,988.85
2023-04-01T01:29:07.363Z,988.83
2023-04-01T01:30:07.424Z,988.82
2023-04-01T01:31:07.552Z,988.83
2023-04-01T01:32:07.345Z,988.87
2023-04-01T01:33:07.380Z,988.78
2023-04-01T01:34:07.341Z,988.86
2023-04-01T01:35:07.332Z,988.85
2023-04-01T01:36:07.432Z,988.79
2023-04-01T01:37:07.323Z,988.83
2023-04-01T01:38:07.322Z,988.84
2023-04-01T01:39:07.347Z,988.78
2023-04-01T01:40:07.314Z,988.81
2023-04-01T01:41:07.329Z,988.80
2023-04-01T01:42:07.323Z,988.83
2023-04-01T01:43:07.310Z,988.87
2023-04-01T01:44:07.306Z,988.85
2023-04-01T01:45:07.299Z,988.86
2023-04-01T01:46:07.309Z,988.89
2023-04-01T01:47:07.290Z,988.89
2023-04-01T01:48:07.375Z,988.90
2023-04-01T01:49:07.280Z,988.87
2023-04-01T01:50:07.276Z,988.80
2023-04-01T01:51:07.273Z,988.92
2023-04-01T01:52:07.277Z,988.86
2023-04-01T01:53:07.269Z,988.88
2023-04-01T01:54:07.266Z,988.76
2023-04-01T01:55:07.262Z,988.87
2023-04-01T01:56:07.256Z,988.88
2023-04-01T01:57:07.296Z,988.85
2023-04-01T01:58:07.250Z,988.87
2023-04-01T01:59:07.260Z,988.83
2023-04-01T02:00:07.243Z,988.85
2023-04-01T02:01:07.271Z,988.83
2023-04-01T02:02:07.236Z,988.87
2023-04-01T02:03:07.356Z,988.82
2023-04-01T02:04:07.272Z,988.88
2023-04-01T02:05:07.237Z,988.80
2023-04-01T02:06:07.233Z,988.83
2023-04-01T02:07:07.245Z,988.87
2023-04-01T02:08:07.212Z,988.87
2023-04-01T02:09:07.208Z,988.85
2023-04-01T02:10:07.204Z,988.86
2023-04-01T02:11:07.206Z,988.86
2023-04-01T02:12:07.202Z,988.83
2023-04-01T02:13:07.211Z,988.81
2023-04-01T02:14:07.201Z,988.82
2023-04-01T02:15:07.183Z,988.84
2023-04-01T02:16:07.226Z,988.86
2023-04-01T02:17:07.194Z,988.89
2023-04-01T02:18:07.187Z,988.88
2023-04-01T02:19:07.173Z,988.83
2023-04-01T02:20:07.172Z,988.85
2023-04-01T02:21:07.164Z,988.82
2023-04-01T02:22:07.159Z,988.82
2023-04-01T02:23:07.155Z,988.83
2023-04-01T02:24:07.159Z,988.81
2023-04-01T02:25:07.150Z,988.79
2023-04-01T02:26:07.152Z,988.80
2023-04-01T02:27:07.143Z,988.77
2023-04-01T02:28:07.142Z,988.76
2023-04-01T02:29:07.156Z,988.77
2023-04-01T02:30:07.146Z,988.76
2023-04-01T02:31:07.622Z,988.75
2023-04-01T02:32:07.124Z,988.68
2023-04-01T02:33:07.227Z,988.75
2023-04-01T02:34:07.158Z,988.75
2023-04-01T02:35:07.119Z,988.73
2023-04-01T02:36:07.152Z,988.73
2023-04-01T02:37:07.104Z,988.73
2023-04-01T02:38:07.104Z,988.76
2023-04-01T02:39:07.094Z,988.81
2023-04-01T02:40:07.096Z,988.79
2023-04-01T02:41:07.094Z,988.76
2023-04-01T02:42:07.085Z,988.76
2023-04-01T02:43:07.086Z,988.78
2023-04-01T02:44:07.074Z,988.82
2023-04-01T02:45:07.094Z,988.78
2023-04-01T02:46:07.072Z,988.81
2023-04-01T02:47:07.220Z,988.81
2023-04-01T02:48:07.107Z,988.85
2023-04-01T02:49:07.069Z,988.88
2023-04-01T02:50:07.070Z,988.84
2023-04-01T02:51:07.060Z,988.86
2023-04-01T02:52:07.052Z,988.84
2023-04-01T02:53:07.054Z,988.84
2023-04-01T02:54:07.072Z,988.85
2023-04-01T02:55:07.059Z,988.90
2023-04-01T02:56:07.036Z,988.92
2023-04-01T02:57:07.045Z,988.88
2023-04-01T02:58:07.037Z,988.87
2023-04-01T02:59:07.029Z,988.92
2023-04-01T03:00:07.037Z,988.98
2023-04-01T03:01:07.099Z,988.95
2023-04-01T03:02:07.052Z,988.92
2023-04-01T03:03:07.102Z,988.96
2023-04-01T03:04:07.009Z,988.95
2023-04-01T03:05:07.008Z,988.92
2023-04-01T03:06:07.005Z,988.89
2023-04-01T03:07:07.002Z,988.95
2023-04-01T03:08:06.994Z,988.96
2023-04-01T03:09:06.995Z,989.00
2023-04-01T03:10:07.004Z,988.94
2023-04-01T03:11:07.007Z,988.97
2023-04-01T03:12:06.978Z,988.99
2023-04-01T03:13:06.976Z,988.97
2023-04-01T03:14:06.988Z,989.03
2023-04-01T03:15:13.933Z,989.00
2023-04-01T03:16:06.991Z,988.98
2023-04-01T03:17:06.985Z,989.01
2023-04-01T03:18:07.028Z,989.01
2023-04-01T03:19:06.973Z,988.99
2023-04-01T03:20:06.971Z,989.02
2023-04-01T03:21:06.949Z,989.02
2023-04-01T03:22:06.951Z,989.03
2023-04-01T03:23:06.943Z,989.04
2023-04-01T03:24:06.935Z,989.03
2023-04-01T03:25:06.935Z,989.05
2023-04-01T03:26:06.928Z,989.08
2023-04-01T03:27:06.944Z,989.12
2023-04-01T03:28:06.919Z,989.06
2023-04-01T03:29:06.921Z,989.05
2023-04-01T03:30:06.971Z,989.03
2023-04-01T03:31:06.926Z,989.10
2023-04-01T03:32:06.903Z,989.06
2023-04-01T03:33:06.974Z,989.08
2023-04-01T03:34:06.897Z,989.10
2023-04-01T03:35:06.894Z,989.14
2023-04-01T03:36:06.927Z,989.10
2023-04-01T03:37:06.891Z,989.06
2023-04-01T03:38:06.882Z,989.13
2023-04-01T03:39:06.878Z,989.13
2023-04-01T03:40:06.870Z,989.16
2023-04-01T03:41:06.870Z,989.17
2023-04-01T03:42:06.866Z,989.17
2023-04-01T03:43:06.880Z,989.13
2023-04-01T03:44:06.868Z,989.15
2023-04-01T03:45:06.857Z,989.16
2023-04-01T03:46:06.899Z,989.13
2023-04-01T03:47:06.850Z,989.16
2023-04-01T03:48:06.899Z,989.19
2023-04-01T03:49:06.865Z,989.20
2023-04-01T03:50:06.838Z,989.15
2023-04-01T03:51:06.835Z,989.16
2023-04-01T03:52:06.841Z,989.13
2023-04-01T03:53:06.827Z,989.16
2023-04-01T03:54:06.824Z,989.20
2023-04-01T03:55:06.818Z,989.21
2023-04-01T03:56:06.815Z,989.17
2023-04-01T03:57:06.829Z,989.20
2023-04-01T03:58:06.826Z,989.19
2023-04-01T03:59:06.823Z,989.22
2023-04-01T04:00:06.806Z,989.18
2023-04-01T04:01:06.805Z,989.19
2023-04-01T04:02:06.795Z,989.22
2023-04-01T04:03:06.830Z,989.16
2023-04-01T04:04:06.824Z,989.23
2023-04-01T04:05:06.807Z,989.24
2023-04-01T04:06:06.806Z,989.20
2023-04-01T04:07:06.776Z,989.18
2023-04-01T04:08:06.773Z,989.23
2023-04-01T04:09:06.774Z,989.23
2023-04-01T04:10:06.769Z,989.23
2023-04-01T04:11:06.772Z,989.23
2023-04-01T04:12:06.760Z,989.23
2023-04-01T04:13:06.759Z,989.23
2023-04-01T04:14:06.751Z,989.20
2023-04-01T04:15:06.749Z,989.29
2023-04-01T04:16:06.798Z,989.25
2023-04-01T04:17:06.748Z,989.23
2023-04-01T04:18:06.775Z,989.24
2023-04-01T04:19:06.734Z,989.23
2023-04-01T04:20:06.726Z,989.23
2023-04-01T04:21:06.746Z,989.23
2023-04-01T04:22:06.722Z,989.22
2023-04-01T04:23:06.719Z,989.25
2023-04-01T04:24:06.712Z,989.23
2023-04-01T04:25:06.709Z,989.26
2023-04-01T04:26:06.716Z,989.25
2023-04-01T04:27:06.704Z,989.22
2023-04-01T04:28:06.700Z,989.22
2023-04-01T04:29:06.698Z,989.22
2023-04-01T04:30:06.705Z,989.25
2023-04-01T04:31:06.696Z,989.23
2023-04-01T04:32:06.731Z,989.22
2023-04-01T04:33:06.726Z,989.23
2023-04-01T04:34:06.672Z,989.26
2023-04-01T04:35:06.670Z,989.30
2023-04-01T04:36:06.715Z,989.29
2023-04-01T04:37:06.688Z,989.27
2023-04-01T04:38:06.662Z,989.28
2023-04-01T04:39:06.656Z,989.32
2023-04-01T04:40:06.656Z,989.34
2023-04-01T04:41:06.649Z,989.29
2023-04-01T04:42:06.642Z,989.34
2023-04-01T04:43:06.641Z,989.36
2023-04-01T04:44:06.640Z,989.31
2023-04-01T04:45:06.636Z,989.32
2023-04-01T04:46:06.628Z,989.37
2023-04-01T04:47:06.671Z,989.35
2023-04-01T04:48:06.648Z,989.35
2023-04-01T04:49:06.621Z,989.33
2023-04-01T04:50:06.615Z,989.34
2023-04-01T04:51:06.608Z,989.37
2023-04-01T04:52:06.605Z,989.40
2023-04-01T04:53:06.621Z,989.40
2023-04-01T04:54:06.601Z,989.39
2023-04-01T04:55:06.596Z,989.41
2023-04-01T04:56:06.593Z,989.40
2023-04-01T04:57:06.632Z,989.33
2023-04-01T04:58:06.582Z,989.38
2023-04-01T04:59:06.585Z,989.40
2023-04-01T05:00:06.593Z,989.40
2023-04-01T05:01:06.631Z,989.39
2023-04-01T05:02:06.599Z,989.39
2023-04-01T05:03:06.675Z,989.41
2023-04-01T05:04:06.563Z,989.39
2023-04-01T05:05:06.564Z,989.42
2023-04-01T05:06:06.561Z,989.42
2023-04-01T05:07:06.559Z,989.46
2023-04-01T05:08:06.548Z,989.48
2023-04-01T05:09:06.563Z,989.51
2023-04-01T05:10:06.544Z,989.46
2023-04-01T05:11:06.538Z,989.51
2023-04-01T05:12:06.531Z,989.51
2023-04-01T05:13:06.527Z,989.51
2023-04-01T05:14:06.529Z,989.49
2023-04-01T05:15:06.536Z,989.50
2023-04-01T05:16:06.514Z,989.49
2023-04-01T05:17:06.586Z,989.52
2023-04-01T05:18:06.543Z,989.54
2023-04-01T05:19:06.521Z,989.53
2023-04-01T05:20:06.504Z,989.55
2023-04-01T05:21:06.509Z,989.54
2023-04-01T05:22:06.501Z,989.56
2023-04-01T05:23:06.500Z,989.57
2023-04-01T05:24:06.485Z,989.57
2023-04-01T05:25:06.504Z,989.60
2023-04-01T05:26:06.484Z,989.60
2023-04-01T05:27:06.479Z,989.63
2023-04-01T05:28:06.470Z,989.55
2023-04-01T05:29:06.469Z,989.57
2023-04-01T05:30:06.466Z,989.57
2023-04-01T05:31:06.554Z,989.60
2023-04-01T05:32:06.456Z,989.63
2023-04-01T05:33:06.526Z,989.57
2023-04-01T05:34:06.455Z,989.65
2023-04-01T05:35:06.447Z,989.65
2023-04-01T05:36:06.650Z,989.61
2023-04-01T05:37:06.439Z,989.64
2023-04-01T05:38:08.119Z,989.65
2023-04-01T05:39:06.443Z,989.64
2023-04-01T05:40:06.433Z,989.66
2023-04-01T05:41:06.460Z,989.73
2023-04-01T05:42:06.423Z,989.70
2023-04-01T05:43:06.431Z,989.66
2023-04-01T05:44:06.416Z,989.68
2023-04-01T05:45:06.512Z,989.71
2023-04-01T05:46:06.421Z,989.74
2023-04-01T05:47:06.414Z,989.71
2023-04-01T05:48:06.432Z,989.68
2023-04-01T05:49:06.399Z,989.71
2023-04-01T05:50:06.390Z,989.72
2023-04-01T05:51:06.408Z,989.72
2023-04-01T05:52:06.389Z,989.72
2023-04-01T05:53:06.381Z,989.70
2023-04-01T05:54:06.376Z,989.75
2023-04-01T05:55:06.384Z,989.68
2023-04-01T05:56:06.373Z,989.74
2023-04-01T05:57:06.458Z,989.72
2023-04-01T05:58:06.367Z,989.72
2023-04-01T05:59:06.360Z,989.72
2023-04-01T06:00:06.349Z,989.76
2023-04-01T06:01:11.278Z,989.73
2023-04-01T06:02:06.345Z,989.79
2023-04-01T06:03:06.470Z,989.76
2023-04-01T06:04:06.473Z,989.78
2023-04-01T06:05:06.341Z,989.77
2023-04-01T06:06:06.336Z,989.80
2023-04-01T06:07:06.330Z,989.78
2023-04-01T06:08:06.324Z,989.78
2023-04-01T06:09:06.320Z,989.80
2023-04-01T06:10:06.313Z,989.86
2023-04-01T06:11:06.317Z,989.87
2023-04-01T06:12:06.315Z,989.84
2023-04-01T06:13:06.324Z,989.81
2023-04-01T06:14:06.317Z,989.83
2023-04-01T06:15:06.304Z,989.85
2023-04-01T06:16:06.334Z,989.83
2023-04-01T06:17:06.293Z,989.85
2023-04-01T06:18:06.325Z,989.83
2023-04-01T06:19:06.285Z,989.86
2023-04-01T06:20:06.283Z,989.89
2023-04-01T06:21:06.274Z,989.81
2023-04-01T06:22:06.270Z,989.90
2023-04-01T06:23:06.269Z,989.93
2023-04-01T06:24:06.292Z,989.94
2023-04-01T06:25:06.269Z,989.90
2023-04-01T06:26:06.264Z,989.95
2023-04-01T06:27:06.254Z,989.94
2023-04-01T06:28:08.908Z,989.90
2023-04-01T06:29:06.265Z,989.94
2023-04-01T06:30:06.241Z,989.97
2023-04-01T06:31:06.252Z,989.97
2023-04-01T06:32:06.286Z,990.01
2023-04-01T06:33:06.280Z,990.03
2023-04-01T06:34:06.227Z,990.01
2023-04-01T06:35:06.234Z,990.05
2023-04-01T06:36:06.306Z,990.07
2023-04-01T06:37:06.239Z,990.06
2023-04-01T06:38:06.216Z,990.02
2023-04-01T06:39:06.585Z,990.01
2023-04-01T06:40:06.203Z,990.02
2023-04-01T06:41:06.211Z,990.06
2023-04-01T06:42:06.205Z,990.02
2023-04-01T06:43:06.210Z,990.05
2023-04-01T06:44:06.188Z,990.01
2023-04-01T06:45:06.210Z,990.03
2023-04-01T06:46:06.212Z,990.08
2023-04-01T06:47:06.197Z,990.02
2023-04-01T06:48:06.211Z,990.09
2023-04-01T06:49:06.174Z,990.05
2023-04-01T06:50:06.176Z,990.08
2023-04-01T06:51:06.180Z,990.07
2023-04-01T06:52:06.167Z,990.04
2023-04-01T06:53:06.230Z,990.12
2023-04-01T06:54:06.174Z,990.10
2023-04-01T06:55:06.157Z,990.07
2023-04-01T06:56:06.146Z,990.07
2023-04-01T06:57:06.174Z,990.10
2023-04-01T06:58:06.138Z,990.08
2023-04-01T06:59:06.149Z,990.11
2023-04-01T07:00:06.135Z,990.17
2023-04-01T07:01:06.185Z,990.11
2023-04-01T07:02:06.136Z,990.13
2023-04-01T07:03:06.984Z,990.15
2023-04-01T07:04:06.172Z,990.15
2023-04-01T07:05:06.111Z,990.17
2023-04-01T07:06:06.108Z,990.15
2023-04-01T07:07:06.105Z,990.11
2023-04-01T07:08:06.099Z,990.13
2023-04-01T07:09:06.259Z,990.18
2023-04-01T07:10:06.093Z,990.18
2023-04-01T07:11:06.092Z,990.18
2023-04-01T07:12:06.179Z,990.14
2023-04-01T07:13:06.088Z,990.13
2023-04-01T07:14:06.090Z,990.18
2023-04-01T07:15:06.079Z,990.12
2023-04-01T07:16:06.085Z,990.19
2023-04-01T07:17:06.148Z,990.21
2023-04-01T07:18:06.134Z,990.22
2023-04-01T07:19:06.055Z,990.22
2023-04-01T07:20:06.058Z,990.27
2023-04-01T07:21:06.051Z,990.27
2023-04-01T07:22:06.043Z,990.28
2023-04-01T07:23:06.040Z,990.26
2023-04-01T07:24:06.051Z,990.29
2023-04-01T07:25:06.031Z,990.31
2023-04-01T07:26:06.028Z,990.35
2023-04-01T07:27:06.021Z,990.29
2023-04-01T07:28:06.034Z,990.34
2023-04-01T07:29:06.018Z,990.35
2023-04-01T07:30:06.027Z,990.39
2023-04-01T07:31:06.077Z,990.35
2023-04-01T07:32:06.004Z,990.42
2023-04-01T07:33:06.038Z,990.46
2023-04-01T07:34:05.997Z,990.46
2023-04-01T07:35:05.991Z,990.48
2023-04-01T07:36:05.985Z,990.47
2023-04-01T07:37:05.982Z,990.48
2023-04-01T07:38:05.984Z,990.45
2023-04-01T07:39:05.979Z,990.47
2023-04-01T07:40:05.977Z,990.51
2023-04-01T07:41:06.421Z,990.52
2023-04-01T07:42:05.979Z,990.56
2023-04-01T07:43:05.969Z,990.53
2023-04-01T07:44:05.959Z,990.56
2023-04-01T07:45:05.964Z,990.56
2023-04-01T07:46:06.002Z,990.53
2023-04-01T07:47:05.955Z,990.55
2023-04-01T07:48:05.984Z,990.61
2023-04-01T07:49:05.960Z,990.58
2023-04-01T07:50:05.938Z,990.58
2023-04-01T07:51:05.934Z,990.61
2023-04-01T07:52:05.942Z,990.65
2023-04-01T07:53:05.927Z,990.64
2023-04-01T07:54:05.928Z,990.68
2023-04-01T07:55:05.920Z,990.68
2023-04-01T07:56:05.945Z,990.73
2023-04-01T07:57:05.953Z,990.73
2023-04-01T07:58:05.914Z,990.73
2023-04-01T07:59:05.904Z,990.75
2023-04-01T08:00:05.904Z,990.72
2023-04-01T08:01:05.895Z,990.76
2023-04-01T08:02:05.901Z,990.71
2023-04-01T08:03:05.937Z,990.69
2023-04-01T08:04:06.233Z,990.73
2023-04-01T08:05:05.930Z,990.76
2023-04-01T08:06:05.884Z,990.75
2023-04-01T08:07:05.890Z,990.81
2023-04-01T08:08:05.880Z,990.80
2023-04-01T08:09:05.879Z,990.84
2023-04-01T08:10:05.863Z,990.82
2023-04-01T08:11:05.860Z,990.88
2023-04-01T08:12:05.854Z,990.81
2023-04-01T08:13:05.848Z,990.85
2023-04-01T08:14:05.847Z,990.90
2023-04-01T08:15:05.839Z,990.88
2023-04-01T08:16:05.851Z,990.93
2023-04-01T08:17:05.835Z,990.95
2023-04-01T08:18:05.894Z,990.96
2023-04-01T08:19:05.826Z,990.99
2023-04-01T08:20:05.827Z,990.98
2023-04-01T08:21:05.832Z,991.03
2023-04-01T08:22:05.827Z,991.03
2023-04-01T08:23:05.808Z,991.00
2023-04-01T08:24:05.807Z,991.00
2023-04-01T08:25:05.796Z,991.07
2023-04-01T08:26:05.793Z,991.09
2023-04-01T08:27:05.789Z,991.09
2023-04-01T08:28:05.803Z,991.14
2023-04-01T08:29:05.788Z,991.14
2023-04-01T08:30:05.783Z,991.13
2023-04-01T08:31:05.777Z,991.14
2023-04-01T08:32:05.813Z,991.10
2023-04-01T08:33:05.801Z,991.15
2023-04-01T08:34:05.794Z,991.18
2023-04-01T08:35:05.759Z,991.16
2023-04-01T08:36:05.780Z,991.21
2023-04-01T08:37:05.781Z,991.17
2023-04-01T08:38:05.751Z,991.19
2023-04-01T08:39:05.751Z,991.21
2023-04-01T08:40:05.748Z,991.22
2023-04-01T08:41:05.737Z,991.18
2023-04-01T08:42:05.746Z,991.23
2023-04-01T08:43:05.728Z,991.20
2023-04-01T08:44:05.725Z,991.21
2023-04-01T08:45:05.763Z,991.18
2023-04-01T08:46:05.754Z,991.29
2023-04-01T08:47:05.718Z,991.20
2023-04-01T08:48:05.750Z,991.29
2023-04-01T08:49:05.703Z,991.33
2023-04-01T08:50:05.704Z,991.33
2023-04-01T08:51:06.739Z,991.36
2023-04-01T08:52:05.697Z,991.36
2023-04-01T08:53:05.716Z,991.31
2023-04-01T08:54:05.690Z,991.33
2023-04-01T08:55:05.682Z,991.36
2023-04-01T08:56:05.683Z,991.37
2023-04-01T08:57:05.710Z,991.40
2023-04-01T08:58:05.674Z,991.35
2023-04-01T08:59:05.691Z,991.39
2023-04-01T09:00:05.678Z,991.42
2023-04-01T09:01:05.666Z,991.40
2023-04-01T09:02:05.743Z,991.37
2023-04-01T09:03:05.753Z,991.43
2023-04-01T09:04:05.690Z,991.46
2023-04-01T09:05:05.652Z,991.47
2023-04-01T09:06:05.652Z,991.47
2023-04-01T09:07:05.637Z,991.51
2023-04-01T09:08:05.643Z,991.51
2023-04-01T09:09:05.648Z,991.54
2023-04-01T09:10:05.628Z,991.52
2023-04-01T09:11:05.620Z,991.60
2023-04-01T09:12:05.654Z,991.57
2023-04-01T09:13:05.611Z,991.58
2023-04-01T09:14:05.610Z,991.57
2023-04-01T09:15:05.604Z,991.62
2023-04-01T09:16:05.632Z,991.59
2023-04-01T09:17:05.596Z,991.61
2023-04-01T09:18:05.639Z,991.68
2023-04-01T09:19:05.589Z,991.67
2023-04-01T09:20:05.641Z,991.68
2023-04-01T09:21:05.585Z,991.73
2023-04-01T09:22:05.583Z,991.72
2023-04-01T09:23:05.585Z,991.73
2023-04-01T09:24:05.574Z,991.78
2023-04-01T09:25:05.593Z,991.74
2023-04-01T09:26:05.567Z,991.76
2023-04-01T09:27:05.571Z,991.80
2023-04-01T09:28:05.564Z,991.82
2023-04-01T09:29:05.557Z,991.85
2023-04-01T09:30:05.553Z,991.86
2023-04-01T09:31:05.586Z,991.82
2023-04-01T09:32:05.547Z,991.83
2023-04-01T09:33:05.569Z,991.85
2023-04-01T09:34:05.544Z,991.88
2023-04-01T09:35:05.534Z,991.88
2023-04-01T09:36:05.575Z,991.93
2023-04-01T09:37:05.532Z,991.94
2023-04-01T09:38:05.529Z,991.95
2023-04-01T09:39:05.522Z,991.96
2023-04-01T09:40:05.518Z,991.95
2023-04-01T09:41:05.533Z,991.94
2023-04-01T09:42:05.523Z,991.96
2023-04-01T09:43:05.506Z,991.97
2023-04-01T09:44:05.548Z,991.97
2023-04-01T09:45:05.508Z,991.98
2023-04-01T09:46:05.510Z,991.96
2023-04-01T09:47:05.498Z,991.98
2023-04-01T09:48:05.506Z,992.01
2023-04-01T09:49:05.490Z,992.01
2023-04-01T09:50:05.480Z,992.03
2023-04-01T09:51:05.481Z,992.05
2023-04-01T09:52:05.474Z,992.04
2023-04-01T09:53:05.467Z,992.02
2023-04-01T09:54:05.480Z,992.06
2023-04-01T09:55:05.458Z,992.07
2023-04-01T09:56:05.454Z,992.09
2023-04-01T09:57:05.521Z,992.13
2023-04-01T09:58:05.449Z,992.12
2023-04-01T09:59:05.467Z,992.12
2023-04-01T10:00:05.448Z,992.13
2023-04-01T10:01:05.431Z,992.18
2023-04-01T10:02:05.524Z,992.16
2023-04-01T10:03:05.448Z,992.15
2023-04-01T10:04:05.424Z,992.16
2023-04-01T10:05:05.580Z,992.18
2023-04-01T10:06:05.628Z,992.20
2023-04-01T10:07:05.406Z,992.21
2023-04-01T10:08:05.404Z,992.21
2023-04-01T10:09:05.412Z,992.17
2023-04-01T10:10:05.396Z,992.23
2023-04-01T10:11:05.391Z,992.24
2023-04-01T10:12:05.388Z,992.22
2023-04-01T10:13:05.408Z,992.26
2023-04-01T10:14:05.388Z,992.28
2023-04-01T10:15:05.382Z,992.27
2023-04-01T10:16:05.382Z,992.29
2023-04-01T10:17:05.369Z,992.30
2023-04-01T10:18:05.473Z,992.30
2023-04-01T10:19:05.364Z,992.29
2023-04-01T10:20:05.359Z,992.36
2023-04-01T10:21:05.360Z,992.32
2023-04-01T10:22:05.350Z,992.31
2023-04-01T10:23:05.345Z,992.33
2023-04-01T10:24:05.347Z,992.33
2023-04-01T10:25:06.300Z,992.32
2023-04-01T10:26:05.333Z,992.35
2023-04-01T10:27:05.328Z,992.34
2023-04-01T10:28:05.325Z,992.34
2023-04-01T10:29:05.342Z,992.36
2023-04-01T10:30:05.324Z,992.37
2023-04-01T10:31:05.323Z,992.37
2023-04-01T10:32:05.351Z,992.33
2023-04-01T10:33:05.335Z,992.36
2023-04-01T10:34:05.302Z,992.39
2023-04-01T10:35:05.301Z,992.40
2023-04-01T10:36:05.312Z,992.40
2023-04-01T10:37:05.288Z,992.47
2023-04-01T10:38:05.312Z,992.45
2023-04-01T10:39:05.303Z,992.47
2023-04-01T10:40:05.280Z,992.45
2023-04-01T10:41:05.276Z,992.42
2023-04-01T10:42:05.270Z,992.45
2023-04-01T10:43:05.269Z,992.49
2023-04-01T10:44:05.270Z,992.46
2023-04-01T10:45:05.281Z,992.47
2023-04-01T10:46:05.753Z,992.48
2023-04-01T10:47:05.264Z,992.46
2023-04-01T10:48:05.297Z,992.47
2023-04-01T10:49:05.242Z,992.52
2023-04-01T10:50:05.241Z,992.48
2023-04-01T10:51:05.235Z,992.52
2023-04-01T10:52:05.231Z,992.52
2023-04-01T10:53:07.154Z,992.52
2023-04-01T10:54:05.225Z,992.53
2023-04-01T10:55:05.229Z,992.54
2023-04-01T10:56:05.219Z,992.54
2023-04-01T10:57:05.304Z,992.57
2023-04-01T10:58:05.211Z,992.54
2023-04-01T10:59:05.205Z,992.59
2023-04-01T11:00:05.200Z,992.59
2023-04-01T11:01:05.270Z,992.58
2023-04-01T11:02:11.217Z,992.61
2023-04-01T11:03:05.275Z,992.57
2023-04-01T11:04:05.188Z,992.58
2023-04-01T11:05:05.185Z,992.63
2023-04-01T11:06:05.177Z,992.61
2023-04-01T11:07:05.172Z,992.60
2023-04-01T11:08:06.877Z,992.59
2023-04-01T11:09:05.167Z,992.65
2023-04-01T11:10:05.234Z,992.60
2023-04-01T11:11:05.170Z,992.63
2023-04-01T11:12:05.153Z,992.61
2023-04-01T11:13:05.156Z,992.64
2023-04-01T11:14:05.152Z,992.65
2023-04-01T11:15:05.146Z,992.64
2023-04-01T11:16:05.191Z,992.67
2023-04-01T11:17:05.208Z,992.69
2023-04-01T11:18:05.227Z,992.70
2023-04-01T11:19:05.142Z,992.69
2023-04-01T11:20:05.135Z,992.68
2023-04-01T11:21:05.130Z,992.73
2023-04-01T11:22:05.116Z,992.75
2023-04-01T11:23:05.113Z,992.71
2023-04-01T11:24:06.084Z,992.73
2023-04-01T11:25:05.121Z,992.77
2023-04-01T11:26:05.103Z,992.78
2023-04-01T11:27:05.175Z,992.79
2023-04-01T11:28:05.093Z,992.81
2023-04-01T11:29:05.092Z,992.82
2023-04-01T11:30:05.097Z,992.86
2023-04-01T11:31:05.130Z,992.85
2023-04-01T11:32:05.077Z,992.85
2023-04-01T11:33:05.171Z,992.87
2023-04-01T11:34:05.087Z,992.84
2023-04-01T11:35:05.067Z,992.88
2023-04-01T11:36:05.081Z,992.88
2023-04-01T11:37:05.069Z,992.88
2023-04-01T11:38:05.073Z,992.90
2023-04-01T11:39:05.055Z,992.94
2023-04-01T11:40:05.047Z,992.93
2023-04-01T11:41:05.071Z,992.96
2023-04-01T11:42:05.056Z,992.96
2023-04-01T11:43:05.039Z,992.92
2023-04-01T11:44:05.032Z,993.01
2023-04-01T11:45:05.039Z,993.00
2023-04-01T11:46:05.074Z,993.01
2023-04-01T11:47:05.376Z,992.97
2023-04-01T11:48:05.056Z,992.98
2023-04-01T11:49:05.038Z,993.05
2023-04-01T11:50:05.031Z,993.04
2023-04-01T11:51:05.013Z,993.00
2023-04-01T11:52:05.000Z,993.00
2023-04-01T11:53:04.998Z,993.02
2023-04-01T11:54:05.003Z,993.04
2023-04-01T11:55:04.993Z,993.06
2023-04-01T11:56:04.992Z,993.14
2023-04-01T11:57:05.052Z,993.12
2023-04-01T11:58:04.979Z,993.12
2023-04-01T11:59:04.978Z,993.17
2023-04-01T12:00:04.975Z,993.13
2023-04-01T12:01:04.983Z,993.13
2023-04-01T12:02:04.963Z,993.18
2023-04-01T12:03:05.059Z,993.21
2023-04-01T12:04:05.103Z,993.17
2023-04-01T12:05:04.974Z,993.20
2023-04-01T12:06:04.957Z,993.22
2023-04-01T12:07:04.951Z,993.23
2023-04-01T12:08:04.941Z,993.24
2023-04-01T12:09:04.938Z,993.26
2023-04-01T12:10:04.936Z,993.32
2023-04-01T12:11:04.938Z,993.27
2023-04-01T12:12:04.923Z,993.30
2023-04-01T12:13:04.923Z,993.33
2023-04-01T12:14:04.917Z,993.34
2023-04-01T12:15:04.918Z,993.32
2023-04-01T12:16:04.929Z,993.37
2023-04-01T12:17:04.918Z,993.35
2023-04-01T12:18:05.023Z,993.39
2023-04-01T12:19:04.901Z,993.34
2023-04-01T12:20:04.898Z,993.39
2023-04-01T12:21:04.913Z,993.42
2023-04-01T12:22:04.891Z,993.42
2023-04-01T12:23:04.898Z,993.42
2023-04-01T12:24:04.881Z,993.50
2023-04-01T12:25:04.879Z,993.43
2023-04-01T12:26:04.886Z,993.54
2023-04-01T12:27:04.874Z,993.52
2023-04-01T12:28:04.866Z,993.52